createdAt,value
2022-10-03T00:00:56.082Z,13.58
2022-10-03T00:04:21.535Z,13.6
2022-10-03T00:07:46.938Z,13.57
2022-10-03T00:11:12.357Z,13.54
2022-10-03T00:14:37.736Z,13.54
2022-10-03T00:18:03.159Z,13.53
2022-10-03T00:21:28.569Z,13.53
2022-10-03T00:24:53.989Z,13.52
2022-10-03T00:28:19.467Z,13.53
2022-10-03T00:31:45.051Z,13.57
2022-10-03T00:35:10.280Z,13.58
2022-10-03T00:38:35.774Z,13.57
2022-10-03T00:42:01.178Z,13.52
2022-10-03T00:45:26.592Z,13.48
2022-10-03T00:48:51.957Z,13.49
2022-10-03T00:52:17.343Z,13.5
2022-10-03T00:55:42.737Z,13.53
2022-10-03T00:59:08.231Z,13.54
2022-10-03T01:02:33.752Z,13.56
2022-10-03T01:05:59.100Z,13.58
2022-10-03T01:09:24.467Z,13.6
2022-10-03T01:12:49.915Z,13.58
2022-10-03T01:16:15.495Z,13.56
2022-10-03T01:19:41.010Z,13.56
2022-10-03T01:23:06.378Z,13.56
2022-10-03T01:26:31.821Z,13.53
2022-10-03T01:29:57.167Z,13.44
2022-10-03T01:33:22.561Z,13.4
2022-10-03T01:36:47.981Z,13.38
2022-10-03T01:40:13.392Z,13.37
2022-10-03T01:43:38.787Z,13.38
2022-10-03T01:47:04.216Z,13.4
2022-10-03T01:50:29.613Z,13.43
2022-10-03T01:53:55.080Z,13.41
2022-10-03T01:57:20.507Z,13.36
2022-10-03T02:00:45.993Z,13.33
2022-10-03T02:04:11.372Z,13.34
2022-10-03T02:07:36.780Z,13.32
2022-10-03T02:11:02.201Z,13.28
2022-10-03T02:14:27.591Z,13.26
2022-10-03T02:17:52.996Z,13.23
2022-10-03T02:21:18.392Z,13.19
2022-10-03T02:24:43.830Z,13.15
2022-10-03T02:28:09.322Z,13.13
2022-10-03T02:31:34.631Z,13.07
2022-10-03T02:35:00.003Z,12.98
2022-10-03T02:38:25.506Z,12.97
2022-10-03T02:41:50.979Z,12.93
2022-10-03T02:45:16.429Z,12.92
2022-10-03T02:48:41.838Z,12.92
2022-10-03T02:52:07.248Z,12.89
2022-10-03T02:55:32.698Z,12.88
2022-10-03T02:58:58.124Z,12.88
2022-10-03T03:02:23.571Z,12.87
2022-10-03T03:05:48.925Z,12.87
2022-10-03T03:09:14.342Z,12.84
2022-10-03T03:12:41.475Z,12.83
2022-10-03T03:16:05.199Z,12.84
2022-10-03T03:19:30.618Z,12.84
2022-10-03T03:22:56.062Z,12.82
2022-10-03T03:26:21.462Z,12.77
2022-10-03T03:29:46.874Z,12.76
2022-10-03T03:33:12.278Z,12.78
2022-10-03T03:36:37.763Z,12.81
2022-10-03T03:40:03.139Z,12.85
2022-10-03T03:43:28.549Z,12.84
2022-10-03T03:46:53.987Z,12.86
2022-10-03T03:50:19.459Z,12.86
2022-10-03T03:53:44.898Z,12.89
2022-10-03T03:57:10.817Z,12.93
2022-10-03T04:00:36.290Z,12.95
2022-10-03T04:04:01.762Z,12.96
2022-10-03T04:07:27.222Z,12.99
2022-10-03T04:10:52.728Z,12.99
2022-10-03T04:14:18.224Z,13
2022-10-03T04:17:43.669Z,13.01
2022-10-03T04:21:09.140Z,13.01
2022-10-03T04:24:34.587Z,12.97
2022-10-03T04:28:00.179Z,12.97
2022-10-03T04:31:25.569Z,12.98
2022-10-03T04:34:50.989Z,12.97
2022-10-03T04:38:16.406Z,12.96
2022-10-03T04:41:43.156Z,12.93
2022-10-03T04:45:07.389Z,12.93
2022-10-03T04:48:32.753Z,12.95
2022-10-03T04:51:58.047Z,12.96
2022-10-03T04:55:23.215Z,12.96
2022-10-03T04:58:48.403Z,12.98
2022-10-03T05:02:13.636Z,12.97
2022-10-03T05:05:38.789Z,12.99
2022-10-03T05:09:03.982Z,12.98
2022-10-03T05:12:29.187Z,13
2022-10-03T05:15:54.377Z,12.98
2022-10-03T05:19:19.566Z,13.01
2022-10-03T05:22:44.715Z,13.03
2022-10-03T05:26:32.568Z,13.02
2022-10-03T05:29:35.119Z,13.02
2022-10-03T05:33:02.890Z,13.01
2022-10-03T05:36:25.736Z,13.02
2022-10-03T05:39:50.861Z,13.03
2022-10-03T05:43:16.025Z,13.04
2022-10-03T05:46:41.226Z,13.05
2022-10-03T05:50:10.506Z,13.06
2022-10-03T05:53:31.603Z,13.09
2022-10-03T05:56:56.739Z,13.11
2022-10-03T06:00:21.919Z,13.09
2022-10-03T06:03:47.086Z,13.09
2022-10-03T06:07:12.284Z,13.08
2022-10-03T06:10:37.474Z,13.07
2022-10-03T06:14:02.618Z,13.07
2022-10-03T06:17:27.835Z,13.06
2022-10-03T06:20:53.019Z,13.07
2022-10-03T06:24:18.183Z,13.07
2022-10-03T06:27:43.458Z,13.09
2022-10-03T06:31:08.563Z,13.06
2022-10-03T06:34:33.681Z,13.05
2022-10-03T06:37:58.868Z,13.04
2022-10-03T06:41:24.038Z,13.06
2022-10-03T06:44:49.266Z,13.06
2022-10-03T06:48:14.521Z,13.05
2022-10-03T06:51:40.111Z,13.07
2022-10-03T06:55:04.861Z,13.12
2022-10-03T06:58:30.013Z,13.16
2022-10-03T07:01:55.319Z,13.18
2022-10-03T07:05:20.371Z,13.19
2022-10-03T07:08:45.537Z,13.19
2022-10-03T07:12:14.114Z,13.18
2022-10-03T07:15:59.344Z,13.23
2022-10-03T07:19:01.060Z,13.27
2022-10-03T07:22:26.211Z,13.31
2022-10-03T07:25:51.383Z,13.32
2022-10-03T07:29:16.555Z,13.35
2022-10-03T07:32:41.725Z,13.38
2022-10-03T07:36:06.925Z,13.39
2022-10-03T07:39:32.071Z,13.43
2022-10-03T07:42:57.247Z,13.45
2022-10-03T07:46:22.475Z,13.41
2022-10-03T07:49:47.599Z,13.37
2022-10-03T07:53:12.791Z,13.37
2022-10-03T07:56:37.915Z,13.4
2022-10-03T08:00:03.082Z,13.41
2022-10-03T08:03:28.284Z,13.48
2022-10-03T08:06:53.437Z,13.54
2022-10-03T08:10:18.720Z,13.62
2022-10-03T08:13:43.765Z,13.66
2022-10-03T08:17:08.964Z,13.69
2022-10-03T08:20:34.129Z,13.77
2022-10-03T08:23:59.323Z,13.81
2022-10-03T08:27:24.550Z,13.89
2022-10-03T08:30:49.749Z,13.89
2022-10-03T08:34:14.903Z,13.86
2022-10-03T08:37:40.069Z,13.89
2022-10-03T08:41:05.250Z,13.88
2022-10-03T08:44:30.748Z,13.87
2022-10-03T08:47:55.589Z,13.9
2022-10-03T08:51:20.771Z,13.95
2022-10-03T08:54:45.940Z,14.01
2022-10-03T08:58:11.120Z,14.12
2022-10-03T09:01:36.362Z,14.18
2022-10-03T09:05:01.462Z,14.22
2022-10-03T09:08:26.638Z,14.24
2022-10-03T09:11:51.818Z,14.29
2022-10-03T09:15:16.995Z,14.29
2022-10-03T09:18:42.292Z,14.32
2022-10-03T09:22:07.340Z,14.4
2022-10-03T09:25:32.498Z,14.52
2022-10-03T09:28:57.693Z,14.68
2022-10-03T09:32:22.852Z,14.77
2022-10-03T09:35:48.050Z,14.79
2022-10-03T09:39:13.194Z,14.81
2022-10-03T09:42:38.369Z,14.8
2022-10-03T09:46:03.533Z,14.77
2022-10-03T09:49:28.710Z,14.83
2022-10-03T09:52:54.006Z,14.9
2022-10-03T09:56:19.060Z,15.01
2022-10-03T09:59:44.221Z,15.09
2022-10-03T10:03:09.378Z,15.07
2022-10-03T10:06:34.540Z,14.99
2022-10-03T10:09:59.740Z,14.94
2022-10-03T10:13:24.898Z,14.96
2022-10-03T10:16:50.418Z,14.99
2022-10-03T10:20:15.239Z,14.97
2022-10-03T10:23:40.406Z,14.96
2022-10-03T10:27:05.586Z,14.99
2022-10-03T10:30:30.726Z,15.16
2022-10-03T10:33:55.892Z,15.33
2022-10-03T10:37:21.082Z,15.45
2022-10-03T10:40:46.232Z,15.49
2022-10-03T10:44:11.429Z,15.47
2022-10-03T10:47:36.580Z,15.5
2022-10-03T10:51:01.775Z,15.56
2022-10-03T10:54:26.950Z,15.61
2022-10-03T10:57:52.129Z,15.63
2022-10-03T11:01:17.402Z,15.56
2022-10-03T11:04:47.117Z,15.46
2022-10-03T11:08:12.274Z,15.38
2022-10-03T11:11:37.842Z,15.37
2022-10-03T11:15:03.019Z,15.39
2022-10-03T11:18:28.220Z,15.45
2022-10-03T11:21:53.386Z,15.55
2022-10-03T11:25:18.541Z,15.68
2022-10-03T11:28:43.742Z,15.72
2022-10-03T11:32:08.899Z,15.75
2022-10-03T11:35:34.106Z,15.78
2022-10-03T11:38:59.267Z,15.72
2022-10-03T11:42:24.453Z,15.69
2022-10-03T11:45:49.693Z,15.63
2022-10-03T11:49:14.833Z,15.59
2022-10-03T11:52:40.026Z,15.58
2022-10-03T11:56:05.191Z,15.62
2022-10-03T11:59:30.362Z,15.66
2022-10-03T12:02:55.653Z,15.78
2022-10-03T12:06:20.785Z,15.9
2022-10-03T12:09:45.980Z,16
2022-10-03T12:13:11.172Z,16.040001
2022-10-03T12:16:36.494Z,16.030001
2022-10-03T12:20:01.576Z,16.040001
2022-10-03T12:23:26.788Z,16.02
2022-10-03T12:26:51.995Z,15.91
2022-10-03T12:30:17.157Z,15.82
2022-10-03T12:33:42.369Z,15.76
2022-10-03T12:37:07.602Z,15.73
2022-10-03T12:40:32.789Z,15.69
2022-10-03T12:43:57.957Z,15.7
2022-10-03T12:47:37.521Z,15.79
2022-10-03T12:50:48.330Z,15.89
2022-10-03T12:54:13.540Z,15.91
2022-10-03T12:57:38.697Z,15.87
2022-10-03T13:01:03.992Z,15.86
2022-10-03T13:04:29.114Z,15.79
2022-10-03T13:07:54.357Z,15.71
2022-10-03T13:11:19.559Z,15.7
2022-10-03T13:14:44.743Z,15.7
2022-10-03T13:18:09.978Z,15.67
2022-10-03T13:21:50.876Z,15.67
2022-10-03T13:25:00.574Z,15.68
2022-10-03T13:28:25.812Z,15.68
2022-10-03T13:31:50.949Z,15.64
2022-10-03T13:35:16.165Z,15.64
2022-10-03T13:38:41.302Z,15.57
2022-10-03T13:42:06.479Z,15.49
2022-10-03T13:45:31.737Z,15.5
2022-10-03T13:48:59.729Z,15.47
2022-10-03T13:52:22.065Z,15.51
2022-10-03T13:55:47.244Z,15.54
2022-10-03T13:59:12.416Z,15.62
2022-10-03T14:02:37.606Z,15.69
2022-10-03T14:06:02.782Z,15.7
2022-10-03T14:09:27.968Z,15.71
2022-10-03T14:12:56.448Z,15.7
2022-10-03T14:16:18.377Z,15.68
2022-10-03T14:19:43.496Z,15.67
2022-10-03T14:23:08.691Z,15.69
2022-10-03T14:26:33.894Z,15.68
2022-10-03T15:02:53.754Z,13.44
2022-10-03T15:06:18.820Z,14.39
2022-10-03T15:09:43.987Z,14.6
2022-10-03T15:13:09.150Z,14.82
2022-10-03T15:16:34.360Z,14.97
2022-10-03T15:19:59.526Z,15.15
2022-10-03T15:23:24.683Z,15.29
2022-10-03T15:26:49.831Z,15.4
2022-10-03T15:30:15.039Z,15.46
2022-10-03T15:33:40.215Z,15.51
2022-10-03T15:37:05.541Z,15.57
2022-10-03T15:40:30.629Z,15.59
2022-10-03T15:43:55.886Z,15.59
2022-10-03T15:47:21.068Z,15.61
2022-10-03T15:50:46.305Z,15.62
2022-10-03T15:54:11.541Z,15.63
2022-10-03T15:57:36.728Z,15.62
2022-10-03T16:01:02.009Z,15.59
2022-10-03T16:04:27.138Z,15.57
2022-10-03T16:07:52.311Z,15.56
2022-10-03T16:11:17.499Z,15.55
2022-10-03T16:14:42.682Z,15.5
2022-10-03T16:18:07.905Z,15.47
2022-10-03T16:21:33.064Z,15.41
2022-10-03T16:24:58.436Z,15.39
2022-10-03T16:28:24.980Z,15.37
2022-10-03T16:31:50.068Z,15.38
2022-10-03T16:35:15.278Z,15.37
2022-10-03T16:38:40.478Z,15.36
2022-10-03T16:42:05.664Z,15.34
2022-10-03T16:45:30.975Z,15.3
2022-10-03T16:48:56.064Z,15.27
2022-10-03T16:52:21.282Z,15.22
2022-10-03T16:55:46.447Z,15.15
2022-10-03T16:59:11.615Z,15.08
2022-10-03T17:02:36.919Z,15
2022-10-03T17:06:03.343Z,14.9
2022-10-03T17:09:27.193Z,14.82
2022-10-03T17:12:52.395Z,14.74
2022-10-03T17:16:17.563Z,14.66
2022-10-03T17:19:42.837Z,14.57
2022-10-03T17:23:07.885Z,14.51
2022-10-03T17:26:33.079Z,14.46
2022-10-03T17:29:58.240Z,14.41
2022-10-03T17:33:23.430Z,14.37
2022-10-03T17:36:48.629Z,14.31
2022-10-03T17:40:13.760Z,14.25
2022-10-03T17:43:38.929Z,14.21
2022-10-03T17:47:04.105Z,14.18
2022-10-03T17:50:29.280Z,14.14
2022-10-03T17:53:57.667Z,14.1
2022-10-03T17:57:19.672Z,14.05
2022-10-03T18:00:45.030Z,14.01
2022-10-03T18:04:10.087Z,13.96
2022-10-03T18:07:35.301Z,13.9
2022-10-03T18:11:00.499Z,13.84
2022-10-03T18:14:25.661Z,13.8
2022-10-03T18:17:50.855Z,13.82
2022-10-03T18:21:16.075Z,13.82
2022-10-03T18:24:41.255Z,13.83
2022-10-03T18:28:09.585Z,13.86
2022-10-03T18:31:31.638Z,13.9
2022-10-03T18:34:56.765Z,13.93
2022-10-03T18:38:21.943Z,13.94
2022-10-03T18:41:47.151Z,13.95
2022-10-03T18:45:12.362Z,13.97
2022-10-03T18:48:37.547Z,14
2022-10-03T18:52:02.772Z,14.02
2022-10-03T18:55:27.990Z,14.06
2022-10-03T18:58:53.170Z,14.11
2022-10-03T19:02:18.647Z,14.13
2022-10-03T19:05:43.602Z,14.14
2022-10-03T19:09:09.064Z,14.14
2022-10-03T19:12:34.304Z,14.1
2022-10-03T19:15:59.642Z,14.03
2022-10-03T19:19:24.853Z,13.99
2022-10-03T19:22:50.076Z,13.96
2022-10-03T19:26:15.343Z,13.93
2022-10-03T19:29:40.645Z,13.93
2022-10-03T19:33:05.920Z,13.91
2022-10-03T19:36:31.217Z,13.89
2022-10-03T19:39:56.422Z,13.87
2022-10-03T19:43:21.668Z,13.87
2022-10-03T19:46:46.895Z,13.86
2022-10-03T19:50:12.162Z,13.85
2022-10-03T19:53:37.431Z,13.83
2022-10-03T19:57:02.661Z,13.81
2022-10-03T20:00:27.875Z,13.79
2022-10-03T20:03:53.123Z,13.77
2022-10-03T20:07:18.369Z,13.78
2022-10-03T20:10:43.591Z,13.78
2022-10-03T20:14:08.744Z,13.79
2022-10-03T20:17:33.946Z,13.8
2022-10-03T20:20:59.115Z,13.83
2022-10-03T20:24:24.283Z,13.86
2022-10-03T20:27:49.503Z,13.87
2022-10-03T20:31:14.644Z,13.88
2022-10-03T20:34:40.711Z,13.88
2022-10-03T20:38:05.893Z,13.88
2022-10-03T20:41:31.060Z,13.88
2022-10-03T20:44:56.270Z,13.89
2022-10-03T20:48:21.400Z,13.89
2022-10-03T20:51:46.602Z,13.9
2022-10-03T20:55:11.764Z,13.89
2022-10-03T20:58:36.926Z,13.89
2022-10-03T21:02:02.183Z,13.88
2022-10-03T21:05:27.276Z,13.86
2022-10-03T21:08:52.454Z,13.84
2022-10-03T21:12:17.620Z,13.84
2022-10-03T21:15:42.829Z,13.83
2022-10-03T21:19:07.977Z,13.83
2022-10-03T21:22:33.156Z,13.83
2022-10-03T21:25:58.350Z,13.82
2022-10-03T21:29:23.534Z,13.79
2022-10-03T21:32:48.686Z,13.77
2022-10-03T21:36:13.895Z,13.73
2022-10-03T21:39:39.035Z,13.71
2022-10-03T21:43:04.188Z,13.65
2022-10-03T21:46:29.368Z,13.63
2022-10-03T21:49:54.549Z,13.63
2022-10-03T21:53:19.749Z,13.63
2022-10-03T21:56:44.914Z,13.64
2022-10-03T22:00:10.058Z,13.64
2022-10-03T22:03:35.250Z,13.68
2022-10-03T22:07:00.414Z,13.68
2022-10-03T22:10:25.630Z,13.68
2022-10-03T22:13:50.812Z,13.68
2022-10-03T22:17:15.965Z,13.69
2022-10-03T22:20:41.125Z,13.73
2022-10-03T22:24:06.295Z,13.74
2022-10-03T22:27:31.473Z,13.77
2022-10-03T22:30:56.674Z,13.77
2022-10-03T22:34:21.822Z,13.76
2022-10-03T22:37:46.996Z,13.73
2022-10-03T22:41:12.171Z,13.69
2022-10-03T22:44:37.370Z,13.67
2022-10-03T22:48:02.512Z,13.65
2022-10-03T22:51:27.717Z,13.65
2022-10-03T22:54:52.881Z,13.65
2022-10-03T22:58:18.063Z,13.66
2022-10-03T23:01:43.404Z,13.65
2022-10-03T23:05:08.401Z,13.64
2022-10-03T23:08:33.577Z,13.61
2022-10-03T23:11:58.757Z,13.58
2022-10-03T23:15:23.923Z,13.52
2022-10-03T23:18:49.132Z,13.48
2022-10-03T23:22:14.253Z,13.44
2022-10-03T23:25:39.435Z,13.4
2022-10-03T23:29:04.611Z,13.35
2022-10-03T23:32:29.790Z,13.31
2022-10-03T23:35:54.981Z,13.25
2022-10-03T23:39:20.106Z,13.2
2022-10-03T23:42:45.280Z,13.16
2022-10-03T23:46:10.507Z,13.12
2022-10-03T23:49:35.618Z,13.09
2022-10-03T23:53:00.805Z,13.06
2022-10-03T23:56:25.956Z,13.02
2022-10-03T23:59:51.121Z,12.96
